Time;durP1;ratioP1;P1;durP2;ratioP2;P2;SDS_P1;SDS_P2;PMS_P1;PMS_P2;Temp;Humidity;BMP_temperature;BMP_pressure;BME280_temperature;BME280_humidity;BME280_pressure;Samples;Min_cycle;Max_cycle;Signal;HPM_P1;HPM_P2
2022/01/06 00:00:47;;;;;;;;;;;;;;;21.95;30.89;97037.56;5040977;28;944;-81
2022/01/06 00:03:12;;;;;;;;;;;;;;;22.13;29.97;97024.72;5045618;28;886;-81
2022/01/06 00:05:38;;;;;;;;;;;;;;;21.95;30.30;97019.78;5049007;28;822;-81
2022/01/06 00:08:03;;;;;;;;;;;;;;;21.88;31.07;97022.94;5030507;28;839;-81
2022/01/06 00:10:30;;;;;;;;;;;;;;;21.99;30.69;97015.53;5047926;28;774;-81
2022/01/06 00:25:37;;;;;;;;;;;;;;;22.15;29.70;97039.97;5070337;28;733;-81
2022/01/06 00:28:02;;;;;;;;;;;;;;;22.22;30.06;97042.47;5101689;28;777;-80
2022/01/06 00:30:28;;;;;;;;;;;;;;;21.74;31.00;97038.50;5107789;28;1251;-81
2022/01/06 00:32:54;;;;;;;;;;;;;;;22.25;29.96;97032.25;5107830;28;1953;-81
2022/01/06 00:35:19;;;;;;;;;;;;;;;22.17;29.81;97037.44;5090710;28;894;-80
2022/01/06 00:37:45;;;;;;;;;;;;;;;22.28;29.76;97043.44;5091543;28;1083;-81
2022/01/06 00:40:10;;;;;;;;;;;;;;;21.51;31.02;97045.53;5090228;28;1342;-81
2022/01/06 00:42:37;;;;;;;;;;;;;;;22.12;30.27;97040.13;5068478;28;1161;-81
2022/01/06 00:45:02;;;;;;;;;;;;;;;22.22;29.64;97042.47;5006760;28;850;-81
2022/01/06 00:47:28;;;;;;;;;;;;;;;22.27;29.74;97046.72;4993036;28;1154;-81
2022/01/06 00:49:53;;;;;;;;;;;;;;;22.59;30.77;97048.16;5007170;28;894;-81
2022/01/06 00:52:19;;;;;;;;;;;;;;;23.05;29.78;97042.38;5008845;28;1891;-81
2022/01/06 00:54:44;;;;;;;;;;;;;;;22.43;29.75;97051.28;4987108;28;1127;-81
2022/01/06 00:57:09;;;;;;;;;;;;;;;22.26;29.81;97040.28;4989652;28;1137;-81
2022/01/06 00:59:35;;;;;;;;;;;;;;;22.35;29.81;97048.78;4970742;28;914;-81
2022/01/06 01:02:00;;;;;;;;;;;;;;;21.96;30.67;97033.47;4959879;28;1120;-81
2022/01/06 01:04:26;;;;;;;;;;;;;;;22.27;30.17;97041.06;4968356;29;1212;-81
2022/01/06 01:06:51;;;;;;;;;;;;;;;22.23;30.03;97035.56;4970114;28;803;-81
2022/01/06 01:09:17;;;;;;;;;;;;;;;22.25;29.75;97038.72;4967985;29;870;-81
2022/01/06 01:11:42;;;;;;;;;;;;;;;22.01;30.70;97034.91;4969985;28;1895;-81
2022/01/06 01:14:19;;;;;;;;;;;;;;;22.32;30.24;97032.72;5012335;28;1103;-82
2022/01/06 01:16:53;;;;;;;;;;;;;;;22.26;29.84;97031.78;5032116;28;957;-81
2022/01/06 01:19:18;;;;;;;;;;;;;;;22.07;29.90;97033.00;5015548;28;900;-81
2022/01/06 01:21:45;;;;;;;;;;;;;;;22.18;30.33;97022.03;5045218;28;921;-81
2022/01/06 01:24:10;;;;;;;;;;;;;;;22.14;30.95;97038.41;5052844;28;984;-81
2022/01/06 01:26:36;;;;;;;;;;;;;;;22.22;30.50;97027.53;5071481;28;842;-81
2022/01/06 01:29:01;;;;;;;;;;;;;;;22.02;30.47;97016.63;5053452;28;794;-81
2022/01/06 01:31:31;;;;;;;;;;;;;;;22.18;30.47;97019.22;5055207;28;1887;-81
2022/01/06 01:34:02;;;;;;;;;;;;;;;21.72;31.58;97016.31;5069599;28;931;-81
2022/01/06 01:36:27;;;;;;;;;;;;;;;21.87;31.25;97021.38;5037725;28;1215;-81
2022/01/06 01:38:53;;;;;;;;;;;;;;;22.15;30.34;97025.81;5049794;28;858;-81
2022/01/06 01:41:19;;;;;;;;;;;;;;;22.27;29.79;97016.34;5052109;28;1190;-80
2022/01/06 01:43:46;;;;;;;;;;;;;;;22.03;30.37;97009.72;5048452;28;782;-81
2022/01/06 01:46:15;;;;;;;;;;;;;;;22.11;30.48;97013.84;5052807;28;746;-81
2022/01/06 01:48:47;;;;;;;;;;;;;;;22.01;31.06;97017.91;5049212;28;937;-81
2022/01/06 01:51:12;;;;;;;;;;;;;;;22.20;30.40;97019.50;5033017;28;1886;-81
2022/01/06 01:53:38;;;;;;;;;;;;;;;22.21;30.31;97021.06;5044899;28;1396;-81
2022/01/06 01:56:10;;;;;;;;;;;;;;;22.16;30.00;97007.53;5084648;28;941;-81
2022/01/06 01:58:35;;;;;;;;;;;;;;;22.09;29.87;97010.66;5068978;28;765;-81
2022/01/06 02:01:01;;;;;;;;;;;;;;;22.01;30.40;97015.06;5072846;28;850;-81
2022/01/06 02:03:29;;;;;;;;;;;;;;;21.49;31.86;97016.88;5068222;28;818;-81
2022/01/06 02:05:55;;;;;;;;;;;;;;;22.26;30.22;97011.94;5071937;28;785;-81
2022/01/06 02:08:20;;;;;;;;;;;;;;;22.25;30.05;97021.72;5068425;28;975;-81
2022/01/06 02:10:46;;;;;;;;;;;;;;;22.31;29.85;97025.47;5071115;28;1957;-81
2022/01/06 02:13:12;;;;;;;;;;;;;;;22.22;30.43;97019.81;5052745;28;1149;-81
2022/01/06 02:15:37;;;;;;;;;;;;;;;21.51;31.77;97025.72;5054622;28;926;-81
2022/01/06 02:18:03;;;;;;;;;;;;;;;22.13;30.44;97019.06;5035644;28;1056;-81
2022/01/06 02:20:29;;;;;;;;;;;;;;;22.21;29.71;97025.97;5054060;28;906;-81
2022/01/06 02:22:54;;;;;;;;;;;;;;;22.23;29.78;97035.56;5067652;28;1220;-81
2022/01/06 02:25:32;;;;;;;;;;;;;;;22.57;30.19;97025.13;5103771;28;777;-81
2022/01/06 02:28:00;;;;;;;;;;;;;;;22.94;30.49;97025.06;5093287;28;1191;-81
2022/01/06 02:30:26;;;;;;;;;;;;;;;22.80;30.31;97027.31;5036909;28;1142;-81
2022/01/06 02:32:51;;;;;;;;;;;;;;;22.30;30.52;97029.59;5013331;28;1976;-81
2022/01/06 02:35:18;;;;;;;;;;;;;;;22.30;29.87;97035.25;5029961;28;898;-81
2022/01/06 02:37:43;;;;;;;;;;;;;;;22.20;30.00;97030.84;5027610;28;1032;-81
2022/01/06 02:40:10;;;;;;;;;;;;;;;22.04;30.63;97039.63;5028526;28;1077;-81
2022/01/06 02:42:38;;;;;;;;;;;;;;;22.14;30.70;97029.91;5030602;28;973;-81
2022/01/06 02:45:04;;;;;;;;;;;;;;;22.23;30.37;97038.41;5008890;28;1217;-81
2022/01/06 02:47:31;;;;;;;;;;;;;;;22.08;30.08;97034.59;4995330;28;1255;-81
2022/01/06 02:49:57;;;;;;;;;;;;;;;22.17;30.29;97031.78;5013159;28;1105;-81
2022/01/06 02:52:22;;;;;;;;;;;;;;;22.21;30.72;97031.63;5031123;28;1954;-81
2022/01/06 02:54:48;;;;;;;;;;;;;;;22.96;30.69;97033.91;5012092;28;878;-81
2022/01/06 02:57:13;;;;;;;;;;;;;;;22.97;30.74;97029.81;5031508;28;850;-81
2022/01/06 02:59:39;;;;;;;;;;;;;;;22.34;30.64;97033.03;4981103;28;976;-81
2022/01/06 03:02:04;;;;;;;;;;;;;;;22.20;30.34;97042.19;4987416;28;878;-81
2022/01/06 03:04:30;;;;;;;;;;;;;;;22.08;30.61;97031.78;5020439;28;1135;-81
2022/01/06 03:06:55;;;;;;;;;;;;;;;22.04;31.12;97022.63;5030758;28;1235;-81
2022/01/06 03:09:26;;;;;;;;;;;;;;;21.42;32.73;97034.16;5045242;28;818;-81
2022/01/06 03:11:53;;;;;;;;;;;;;;;21.91;31.63;97025.59;5030779;28;1952;-81
2022/01/06 03:14:19;;;;;;;;;;;;;;;22.13;30.80;97025.50;5048743;28;1153;-81
2022/01/06 03:16:44;;;;;;;;;;;;;;;22.13;30.43;97027.56;5049354;28;1091;-81
2022/01/06 03:19:10;;;;;;;;;;;;;;;22.07;31.00;97030.97;5068320;28;922;-81
2022/01/06 03:21:35;;;;;;;;;;;;;;;21.97;31.57;97028.63;5070345;28;789;-81
2022/01/06 03:24:01;;;;;;;;;;;;;;;21.99;31.32;97026.88;5068615;28;719;-81
2022/01/06 03:26:26;;;;;;;;;;;;;;;22.04;31.30;97025.47;5071054;28;1009;-81
2022/01/06 03:28:52;;;;;;;;;;;;;;;22.35;30.25;97026.13;5050492;28;1213;-81
2022/01/06 03:31:17;;;;;;;;;;;;;;;22.22;30.27;97027.53;5070886;28;1945;-81
2022/01/06 03:33:43;;;;;;;;;;;;;;;22.02;31.08;97025.94;5050728;28;837;-81
2022/01/06 03:36:08;;;;;;;;;;;;;;;21.67;31.69;97042.41;5071603;28;890;-81
2022/01/06 03:38:34;;;;;;;;;;;;;;;22.11;31.07;97033.66;5066907;28;1227;-81
2022/01/06 03:40:59;;;;;;;;;;;;;;;22.31;30.26;97042.47;5050922;28;1181;-81
2022/01/06 03:43:25;;;;;;;;;;;;;;;22.23;30.18;97035.56;5030650;28;1147;-81
2022/01/06 03:45:50;;;;;;;;;;;;;;;22.15;30.32;97039.19;5070147;28;886;-81
2022/01/06 03:48:16;;;;;;;;;;;;;;;22.27;30.41;97036.19;5066961;28;961;-81
2022/01/06 03:50:41;;;;;;;;;;;;;;;21.73;31.67;97043.38;5071587;28;1048;-81
2022/01/06 03:53:07;;;;;;;;;;;;;;;21.90;31.04;97035.34;5070874;28;1969;-81
2022/01/06 03:55:32;;;;;;;;;;;;;;;22.23;30.63;97040.47;5071767;28;921;-81
2022/01/06 03:57:58;;;;;;;;;;;;;;;22.16;30.46;97030.22;5068186;28;1114;-81
2022/01/06 04:00:23;;;;;;;;;;;;;;;22.08;30.11;97031.78;5065191;28;890;-81
2022/01/06 04:02:49;;;;;;;;;;;;;;;21.99;30.67;97038.22;5068090;28;968;-81
2022/01/06 04:05:14;;;;;;;;;;;;;;;21.82;31.38;97046.22;5067709;28;897;-81
2022/01/06 04:07:40;;;;;;;;;;;;;;;22.19;30.45;97043.44;5068701;28;977;-81
2022/01/06 04:10:06;;;;;;;;;;;;;;;22.04;30.40;97036.78;5050498;28;790;-81
2022/01/06 04:12:35;;;;;;;;;;;;;;;22.15;29.87;97045.63;5067665;28;1960;-81
2022/01/06 04:15:02;;;;;;;;;;;;;;;21.65;31.10;97047.75;5086876;28;885;-80
2022/01/06 04:17:27;;;;;;;;;;;;;;;21.67;31.62;97050.91;5074418;28;906;-81
2022/01/06 04:19:52;;;;;;;;;;;;;;;21.70;31.41;97049.16;5067466;28;925;-81
2022/01/06 04:22:18;;;;;;;;;;;;;;;22.16;30.14;97052.09;5052824;28;1047;-81
2022/01/06 04:24:45;;;;;;;;;;;;;;;22.26;29.81;97054.44;5050328;28;877;-81
2022/01/06 04:27:10;;;;;;;;;;;;;;;22.09;29.84;97047.50;5029162;28;1272;-81
2022/01/06 04:29:35;;;;;;;;;;;;;;;21.90;30.62;97060.06;5013865;28;1143;-82
2022/01/06 04:32:01;;;;;;;;;;;;;;;22.03;30.57;97067.16;5049066;28;1961;-81
2022/01/06 04:34:27;;;;;;;;;;;;;;;22.30;29.65;97063.59;5047522;28;828;-81
2022/01/06 04:36:55;;;;;;;;;;;;;;;22.23;29.97;97063.91;5033324;28;943;-81
2022/01/06 04:39:21;;;;;;;;;;;;;;;22.14;29.96;97077.28;5047742;28;881;-80
2022/01/06 04:41:46;;;;;;;;;;;;;;;22.38;30.37;97068.94;5049211;28;1116;-80
2022/01/06 04:44:12;;;;;;;;;;;;;;;22.59;30.58;97073.66;5006835;28;1360;-80
2022/01/06 04:46:37;;;;;;;;;;;;;;;22.71;30.79;97075.53;5029455;28;904;-81
2022/01/06 04:49:04;;;;;;;;;;;;;;;22.38;30.99;97074.59;4988533;28;867;-80
2022/01/06 04:51:29;;;;;;;;;;;;;;;22.20;30.91;97084.69;4974588;28;1883;-80
2022/01/06 04:53:55;;;;;;;;;;;;;;;22.14;30.80;97089.41;4968502;29;1001;-80
2022/01/06 04:56:20;;;;;;;;;;;;;;;22.12;30.36;97080.56;4971561;28;1142;-79
2022/01/06 04:58:46;;;;;;;;;;;;;;;22.19;30.32;97094.44;4967052;29;1007;-79
2022/01/06 05:01:11;;;;;;;;;;;;;;;22.22;30.22;97084.97;4972046;29;930;-79
2022/01/06 05:03:37;;;;;;;;;;;;;;;21.88;31.79;97093.75;4967024;29;1011;-79
2022/01/06 05:06:02;;;;;;;;;;;;;;;22.87;30.86;97089.38;4971905;29;1020;-79
2022/01/06 05:08:28;;;;;;;;;;;;;;;23.01;30.91;97092.84;4965184;28;1288;-79
2022/01/06 05:10:53;;;;;;;;;;;;;;;22.35;31.01;97084.84;4951976;29;1895;-80
2022/01/06 05:13:18;;;;;;;;;;;;;;;22.23;30.63;97092.25;4947909;28;1139;-80
2022/01/06 05:15:44;;;;;;;;;;;;;;;22.03;30.77;97095.50;4950503;29;868;-80
2022/01/06 05:18:09;;;;;;;;;;;;;;;22.19;30.55;97097.28;4934767;29;1029;-80
2022/01/06 05:20:37;;;;;;;;;;;;;;;22.57;31.57;97098.84;4948575;28;931;-80
2022/01/06 05:23:03;;;;;;;;;;;;;;;22.99;30.77;97096.13;5027540;28;1408;-80
2022/01/06 05:25:30;;;;;;;;;;;;;;;22.57;30.79;97098.84;5102890;28;924;-80
2022/01/06 05:27:55;;;;;;;;;;;;;;;22.33;30.56;97101.56;5087460;28;962;-80
2022/01/06 05:30:21;;;;;;;;;;;;;;;22.17;30.40;97099.78;5066624;28;1158;-80
2022/01/06 05:32:47;;;;;;;;;;;;;;;22.22;30.57;97106.88;5067006;28;1984;-79
2022/01/06 05:35:12;;;;;;;;;;;;;;;22.12;31.11;97119.44;5066424;28;904;-80
2022/01/06 05:37:37;;;;;;;;;;;;;;;22.11;31.05;97113.00;5068230;28;996;-79
2022/01/06 05:40:03;;;;;;;;;;;;;;;22.03;31.06;97123.03;5006458;28;1047;-79
2022/01/06 05:42:29;;;;;;;;;;;;;;;22.20;30.97;97132.84;5009153;28;1029;-80
2022/01/06 05:44:54;;;;;;;;;;;;;;;22.15;30.79;97133.47;5006801;28;889;-79
2022/01/06 05:47:20;;;;;;;;;;;;;;;21.97;31.16;97141.91;5025071;28;908;-79
2022/01/06 05:49:45;;;;;;;;;;;;;;;21.82;31.84;97136.06;5025890;28;905;-79
2022/01/06 05:52:10;;;;;;;;;;;;;;;22.16;30.75;97134.25;5027746;28;1989;-80
2022/01/06 05:54:39;;;;;;;;;;;;;;;22.16;30.48;97132.22;5026681;28;981;-79
2022/01/06 05:57:05;;;;;;;;;;;;;;;22.05;30.69;97138.28;5028220;28;953;-80
2022/01/06 05:59:32;;;;;;;;;;;;;;;22.32;31.32;97143.25;5036613;28;934;-80
2022/01/06 06:01:57;;;;;;;;;;;;;;;23.07;30.67;97130.66;5043974;28;925;-80
2022/01/06 06:04:23;;;;;;;;;;;;;;;22.79;30.57;97132.69;5049830;28;942;-80
2022/01/06 06:06:48;;;;;;;;;;;;;;;22.38;30.82;97134.91;5035230;28;904;-80
2022/01/06 06:09:14;;;;;;;;;;;;;;;22.31;30.42;97136.00;5053761;28;799;-80
2022/01/06 06:11:39;;;;;;;;;;;;;;;22.29;30.39;97144.19;5074248;28;1962;-80
2022/01/06 06:14:05;;;;;;;;;;;;;;;22.03;30.81;97131.53;5069084;28;908;-80
2022/01/06 06:16:30;;;;;;;;;;;;;;;22.10;31.01;97128.41;5070834;28;924;-80
2022/01/06 06:18:55;;;;;;;;;;;;;;;22.18;31.06;97135.38;5075072;28;1180;-80
2022/01/06 06:21:21;;;;;;;;;;;;;;;22.10;31.02;97134.06;5080990;28;1039;-80
2022/01/06 06:23:47;;;;;;;;;;;;;;;21.95;31.34;97144.41;5067349;28;945;-80
2022/01/06 06:26:12;;;;;;;;;;;;;;;22.06;31.14;97139.09;5071813;28;869;-80
2022/01/06 06:28:38;;;;;;;;;;;;;;;22.13;31.15;97141.66;5067789;28;936;-80
2022/01/06 06:31:03;;;;;;;;;;;;;;;21.92;31.44;97151.03;5072447;28;1886;-80
2022/01/06 06:33:29;;;;;;;;;;;;;;;22.44;31.45;97158.56;5067304;28;1243;-80
2022/01/06 06:35:54;;;;;;;;;;;;;;;23.15;30.56;97148.91;5072015;28;968;-80
2022/01/06 06:38:20;;;;;;;;;;;;;;;22.72;30.64;97145.16;5066898;28;1270;-80
2022/01/06 06:40:47;;;;;;;;;;;;;;;22.28;30.86;97151.13;5067146;28;1197;-80
2022/01/06 06:43:13;;;;;;;;;;;;;;;22.17;30.86;97147.94;5027529;28;951;-80
2022/01/06 06:45:41;;;;;;;;;;;;;;;22.01;31.25;97148.97;4995467;28;931;-80
2022/01/06 06:48:07;;;;;;;;;;;;;;;21.93;31.66;97149.78;4987992;28;883;-80
2022/01/06 06:50:33;;;;;;;;;;;;;;;22.39;31.99;97155.56;4960209;28;977;-80
2022/01/06 06:52:59;;;;;;;;;;;;;;;22.73;31.26;97146.72;4952731;29;1989;-79
2022/01/06 06:55:24;;;;;;;;;;;;;;;22.49;31.10;97148.63;4990046;28;1223;-80
2022/01/06 06:57:49;;;;;;;;;;;;;;;22.34;31.35;97148.47;4989952;28;1049;-80
2022/01/06 07:00:15;;;;;;;;;;;;;;;22.10;31.16;97154.72;4969756;29;1092;-80
2022/01/06 07:02:41;;;;;;;;;;;;;;;22.16;30.99;97160.53;4932409;29;1107;-80
2022/01/06 07:05:09;;;;;;;;;;;;;;;22.08;30.99;97153.59;4916218;29;999;-80
2022/01/06 07:07:34;;;;;;;;;;;;;;;22.11;30.84;97155.50;4942943;29;1030;-80
2022/01/06 07:10:00;;;;;;;;;;;;;;;22.08;30.92;97153.59;4919791;29;912;-80
2022/01/06 07:12:26;;;;;;;;;;;;;;;22.24;30.75;97150.50;4960471;28;1879;-80
2022/01/06 07:14:51;;;;;;;;;;;;;;;21.62;32.38;97159.09;4952558;29;1310;-80
2022/01/06 07:17:17;;;;;;;;;;;;;;;21.69;32.02;97160.84;4956961;29;973;-80
2022/01/06 07:19:42;;;;;;;;;;;;;;;21.99;31.09;97159.22;4995288;28;906;-80
2022/01/06 07:22:08;;;;;;;;;;;;;;;21.92;31.25;97159.53;4991099;28;934;-80
2022/01/06 07:24:34;;;;;;;;;;;;;;;22.24;31.73;97161.03;4992910;28;965;-80
2022/01/06 07:27:00;;;;;;;;;;;;;;;22.78;31.52;97153.81;4975980;28;965;-80
2022/01/06 07:29:27;;;;;;;;;;;;;;;23.02;30.96;97162.50;4969085;28;871;-80
2022/01/06 07:31:52;;;;;;;;;;;;;;;22.73;30.65;97163.75;4985166;28;1910;-80
2022/01/06 07:34:18;;;;;;;;;;;;;;;22.29;30.92;97169.72;4949518;29;925;-80
2022/01/06 07:36:43;;;;;;;;;;;;;;;22.19;30.52;97165.28;4951942;29;847;-80
2022/01/06 07:39:09;;;;;;;;;;;;;;;22.19;30.53;97170.94;4951648;28;972;-80
2022/01/06 07:41:34;;;;;;;;;;;;;;;22.09;30.98;97160.81;4988916;28;1245;-80
2022/01/06 07:44:00;;;;;;;;;;;;;;;22.07;30.92;97163.31;4987239;28;876;-80
2022/01/06 07:46:25;;;;;;;;;;;;;;;22.12;30.95;97164.78;4989996;28;978;-80
2022/01/06 07:48:57;;;;;;;;;;;;;;;22.06;30.90;97164.59;4967477;29;1208;-80
2022/01/06 07:51:23;;;;;;;;;;;;;;;22.04;31.08;97164.28;4951310;29;1888;-80
2022/01/06 07:53:48;;;;;;;;;;;;;;;22.12;30.97;97162.72;4909355;29;1147;-79
2022/01/06 07:56:14;;;;;;;;;;;;;;;22.17;30.55;97167.78;4941852;29;935;-79
2022/01/06 07:58:39;;;;;;;;;;;;;;;22.17;30.42;97167.78;4944667;29;1043;-79
2022/01/06 08:01:05;;;;;;;;;;;;;;;22.09;31.71;97172.94;4949961;29;1255;-79
2022/01/06 08:03:30;;;;;;;;;;;;;;;22.71;31.24;97169.09;4928525;29;934;-79
2022/01/06 08:05:56;;;;;;;;;;;;;;;22.87;31.31;97171.63;4933725;29;1026;-79
2022/01/06 08:08:21;;;;;;;;;;;;;;;22.34;31.36;97188.94;4929077;29;1037;-80
2022/01/06 08:10:47;;;;;;;;;;;;;;;22.35;31.05;97182.00;4951003;29;923;-79
2022/01/06 08:13:12;;;;;;;;;;;;;;;22.05;31.38;97177.16;4933943;29;1981;-79
2022/01/06 08:15:38;;;;;;;;;;;;;;;22.04;31.37;97178.44;4948084;29;1101;-79
2022/01/06 08:18:03;;;;;;;;;;;;;;;22.09;31.08;97178.59;4948436;29;1323;-79
2022/01/06 08:20:29;;;;;;;;;;;;;;;21.75;33.01;97182.41;4966880;29;1082;-79
2022/01/06 08:22:54;;;;;;;;;;;;;;;22.35;32.43;97184.03;4965891;28;950;-79
2022/01/06 08:25:19;;;;;;;;;;;;;;;22.72;31.03;97201.88;4945453;28;1005;-79
2022/01/06 08:27:45;;;;;;;;;;;;;;;22.33;31.29;97198.69;4953178;28;1222;-79
2022/01/06 08:30:10;;;;;;;;;;;;;;;22.22;30.92;97206.03;5022809;28;906;-79
2022/01/06 08:32:36;;;;;;;;;;;;;;;22.14;31.54;97202.72;5039786;28;1894;-79
2022/01/06 08:35:02;;;;;;;;;;;;;;;21.26;33.03;97194.41;5023069;28;913;-79
2022/01/06 08:37:27;;;;;;;;;;;;;;;22.12;31.38;97199.56;5025614;28;1080;-80
2022/01/06 08:39:53;;;;;;;;;;;;;;;22.30;30.79;97202.44;5022270;28;1033;-79
2022/01/06 08:42:20;;;;;;;;;;;;;;;22.02;30.90;97203.59;5026181;28;993;-79
2022/01/06 08:44:45;;;;;;;;;;;;;;;22.05;30.76;97200.63;5023677;28;914;-79
2022/01/06 08:47:11;;;;;;;;;;;;;;;22.57;31.75;97189.56;5011630;28;867;-79
2022/01/06 08:49:37;;;;;;;;;;;;;;;23.05;31.13;97189.91;4970168;28;996;-79
2022/01/06 08:52:03;;;;;;;;;;;;;;;22.08;31.69;97159.25;4967753;29;1978;-79
2022/01/06 08:54:28;;;;;;;;;;;;;;;22.23;31.20;97201.97;4984314;28;859;-79
2022/01/06 08:56:53;;;;;;;;;;;;;;;22.15;31.06;97215.63;4986061;28;1160;-79
2022/01/06 08:59:19;;;;;;;;;;;;;;;21.92;31.25;97204.84;4984290;28;1058;-80
2022/01/06 09:01:44;;;;;;;;;;;;;;;22.10;30.87;97199.22;4938982;28;1313;-79
2022/01/06 09:04:10;;;;;;;;;;;;;;;22.24;31.42;97207.16;4944375;29;859;-79
2022/01/06 09:06:35;;;;;;;;;;;;;;;21.53;32.68;97198.69;4930557;29;897;-79
2022/01/06 09:09:01;;;;;;;;;;;;;;;22.10;31.41;97197.19;4907693;29;783;-80
2022/01/06 09:11:26;;;;;;;;;;;;;;;22.19;30.81;97187.94;4934453;29;1971;-79
2022/01/06 09:13:52;;;;;;;;;;;;;;;22.05;30.79;97189.28;4868969;29;979;-79
2022/01/06 09:16:17;;;;;;;;;;;;;;;21.90;31.09;97190.34;4873663;29;933;-79
2022/01/06 09:18:43;;;;;;;;;;;;;;;21.77;31.68;97179.13;4868416;29;880;-79
2022/01/06 09:21:08;;;;;;;;;;;;;;;21.81;31.52;97189.06;4889151;29;964;-79
2022/01/06 09:23:34;;;;;;;;;;;;;;;22.14;30.93;97180.06;4884557;29;844;-79
2022/01/06 09:25:59;;;;;;;;;;;;;;;22.19;30.48;97193.63;4911464;29;991;-80
2022/01/06 09:28:25;;;;;;;;;;;;;;;22.03;30.67;97196.69;4957395;29;959;-79
2022/01/06 09:30:51;;;;;;;;;;;;;;;22.30;31.02;97188.28;4965788;29;782;-80
2022/01/06 09:33:18;;;;;;;;;;;;;;;22.44;31.56;97191.78;4969336;28;1891;-79
2022/01/06 09:35:47;;;;;;;;;;;;;;;22.56;31.86;97199.34;5008913;28;905;-79
2022/01/06 09:38:12;;;;;;;;;;;;;;;22.48;31.26;97195.22;5036608;28;981;-79
2022/01/06 09:40:38;;;;;;;;;;;;;;;22.41;31.15;97195.53;5028102;28;1101;-79
2022/01/06 09:43:04;;;;;;;;;;;;;;;22.31;31.13;97194.75;5026657;28;839;-79
2022/01/06 09:45:32;;;;;;;;;;;;;;;22.18;30.99;97186.38;5012086;28;1197;-79
2022/01/06 09:47:57;;;;;;;;;;;;;;;22.20;30.80;97189.53;5009358;28;859;-79
2022/01/06 09:50:23;;;;;;;;;;;;;;;22.28;30.80;97187.19;5024333;28;893;-79
2022/01/06 09:52:49;;;;;;;;;;;;;;;22.20;30.60;97186.69;5024839;28;1894;-79
2022/01/06 09:55:17;;;;;;;;;;;;;;;22.13;30.69;97177.72;5024005;28;759;-79
2022/01/06 09:57:57;;;;;;;;;;;;;;;21.89;31.60;97181.06;5040570;28;925;-79
2022/01/06 10:00:24;;;;;;;;;;;;;;;21.92;31.52;97173.69;5064619;28;809;-79
2022/01/06 10:02:55;;;;;;;;;;;;;;;22.03;31.01;97174.03;5064671;28;886;-80
2022/01/06 10:05:21;;;;;;;;;;;;;;;22.04;31.13;97175.59;5060618;28;904;-79
2022/01/06 10:07:46;;;;;;;;;;;;;;;22.22;30.62;97174.88;5028501;28;941;-80
2022/01/06 10:10:12;;;;;;;;;;;;;;;22.35;31.45;97170.66;5059968;28;945;-79
2022/01/06 10:12:39;;;;;;;;;;;;;;;22.65;31.76;97176.69;5028449;28;1964;-79
2022/01/06 10:15:14;;;;;;;;;;;;;;;22.79;31.38;97167.50;5042303;28;1391;-79
2022/01/06 10:17:40;;;;;;;;;;;;;;;22.37;31.34;97170.19;5042113;28;930;-79
2022/01/06 10:20:09;;;;;;;;;;;;;;;22.25;31.10;97171.91;5049896;28;898;-79
2022/01/06 10:22:47;;;;;;;;;;;;;;;22.11;30.92;97169.66;5068410;28;898;-79
2022/01/06 10:25:13;;;;;;;;;;;;;;;22.08;30.92;97173.41;5066627;28;877;-79
2022/01/06 10:27:39;;;;;;;;;;;;;;;22.14;30.63;97171.56;5051223;28;890;-79
2022/01/06 10:30:05;;;;;;;;;;;;;;;22.03;30.88;97169.16;5066332;28;814;-81
2022/01/06 10:32:31;;;;;;;;;;;;;;;22.17;30.86;97164.94;5051151;28;1883;-74
2022/01/06 10:35:02;;;;;;;;;;;;;;;22.41;30.67;97158.69;5056185;28;900;-75
2022/01/06 10:37:31;;;;;;;;;;;;;;;21.52;32.58;97163.13;5056864;28;849;-75
2022/01/06 10:39:59;;;;;;;;;;;;;;;22.24;30.82;97172.38;5056767;28;1308;-76
2022/01/06 10:42:29;;;;;;;;;;;;;;;22.23;30.62;97165.94;5071636;28;840;-76
2022/01/06 10:44:57;;;;;;;;;;;;;;;22.11;30.76;97169.66;5096922;28;888;-75
2022/01/06 10:47:32;;;;;;;;;;;;;;;22.42;31.70;97165.94;5097247;28;1102;-76
2022/01/06 10:50:14;;;;;;;;;;;;;;;22.60;31.75;97143.28;5097110;28;750;-75
2022/01/06 10:52:40;;;;;;;;;;;;;;;22.55;31.49;97144.69;5096918;28;1980;-75
2022/01/06 10:55:17;;;;;;;;;;;;;;;22.34;31.55;97143.56;5096809;28;774;-76
2022/01/06 10:57:49;;;;;;;;;;;;;;;22.16;31.62;97149.22;5096985;28;895;-75
2022/01/06 11:00:17;;;;;;;;;;;;;;;22.18;31.31;97146.72;5096604;28;826;-76
2022/01/06 11:02:43;;;;;;;;;;;;;;;22.22;31.12;97147.31;5076845;28;1285;-75
2022/01/06 11:05:08;;;;;;;;;;;;;;;22.00;31.65;97147.41;5078890;28;731;-75
2022/01/06 11:07:36;;;;;;;;;;;;;;;22.08;31.12;97150.75;5079001;28;880;-76
2022/01/06 11:10:15;;;;;;;;;;;;;;;22.17;31.07;97150.00;5078654;28;818;-75
2022/01/06 11:12:41;;;;;;;;;;;;;;;22.12;30.76;97137.22;5078941;28;1978;-75
2022/01/06 11:15:07;;;;;;;;;;;;;;;22.00;30.91;97132.47;5111214;28;790;-75
2022/01/06 11:17:32;;;;;;;;;;;;;;;22.32;32.08;97131.13;5078507;28;791;-76
2022/01/06 11:19:58;;;;;;;;;;;;;;;22.51;31.75;97129.09;5110721;28;801;-75
2022/01/06 11:22:24;;;;;;;;;;;;;;;22.65;31.19;97128.47;5111362;28;1031;-76
2022/01/06 11:24:56;;;;;;;;;;;;;;;22.23;31.32;97131.91;5077963;28;731;-76
2022/01/06 11:27:37;;;;;;;;;;;;;;;22.19;31.27;97136.94;5111701;28;755;-76
2022/01/06 11:30:20;;;;;;;;;;;;;;;22.29;30.83;97135.69;5078183;28;735;-75
2022/01/06 11:32:46;;;;;;;;;;;;;;;22.07;31.23;97135.81;5078607;28;1984;-75
2022/01/06 11:35:15;;;;;;;;;;;;;;;22.08;31.40;97136.59;5078034;28;790;-76
2022/01/06 11:37:44;;;;;;;;;;;;;;;21.65;32.37;97137.53;5110263;28;860;-75
2022/01/06 11:40:10;;;;;;;;;;;;;;;22.16;31.76;97135.03;5108990;28;1207;-75
2022/01/06 11:42:36;;;;;;;;;;;;;;;22.17;31.30;97130.16;5077994;28;762;-75
2022/01/06 11:45:03;;;;;;;;;;;;;;;22.11;31.30;97135.66;5077114;28;891;-75
2022/01/06 11:47:30;;;;;;;;;;;;;;;22.19;31.04;97127.66;5077790;28;790;-75
2022/01/06 11:50:04;;;;;;;;;;;;;;;22.01;31.24;97131.19;5077584;28;766;-75
2022/01/06 11:52:30;;;;;;;;;;;;;;;22.14;31.06;97128.28;5078124;28;1914;-75
2022/01/06 11:54:55;;;;;;;;;;;;;;;22.07;30.85;97129.31;5077109;28;1292;-75
2022/01/06 11:57:37;;;;;;;;;;;;;;;22.43;31.71;97139.16;5110184;28;817;-75
2022/01/06 12:00:32;;;;;;;;;;;;;;;22.59;31.73;97127.53;5076470;28;833;-75
2022/01/06 12:02:59;;;;;;;;;;;;;;;22.31;31.62;97133.19;5094970;28;890;-75
2022/01/06 12:05:24;;;;;;;;;;;;;;;21.91;32.13;97136.06;5095145;28;793;-75
2022/01/06 12:07:52;;;;;;;;;;;;;;;22.06;31.45;97139.09;5078476;28;925;-75
2022/01/06 12:10:20;;;;;;;;;;;;;;;22.02;31.31;97141.28;5078088;28;807;-75
2022/01/06 12:12:45;;;;;;;;;;;;;;;22.17;31.16;97133.78;5078170;28;1926;-75
2022/01/06 12:15:14;;;;;;;;;;;;;;;22.24;31.11;97142.00;5095083;28;775;-76
2022/01/06 12:17:51;;;;;;;;;;;;;;;21.44;32.68;97133.53;5095297;28;832;-75
2022/01/06 12:20:23;;;;;;;;;;;;;;;22.07;31.31;97135.00;5044929;28;980;-75
2022/01/06 12:22:49;;;;;;;;;;;;;;;22.04;31.42;97135.94;5094725;28;727;-75
2022/01/06 12:25:14;;;;;;;;;;;;;;;21.96;31.30;97140.31;5094871;28;1016;-75
2022/01/06 12:27:43;;;;;;;;;;;;;;;22.07;31.22;97143.50;5074805;28;1097;-75
2022/01/06 12:30:09;;;;;;;;;;;;;;;22.27;31.10;97140.25;5058022;28;755;-75
2022/01/06 12:32:35;;;;;;;;;;;;;;;22.64;32.02;97126.91;5074848;28;1898;-75
2022/01/06 12:35:00;;;;;;;;;;;;;;;22.91;31.66;97128.16;5074313;28;826;-75
2022/01/06 12:37:29;;;;;;;;;;;;;;;22.46;31.47;97139.00;5074585;28;839;-75
2022/01/06 12:39:55;;;;;;;;;;;;;;;22.28;31.24;97145.47;5073991;28;1068;-75
2022/01/06 12:42:21;;;;;;;;;;;;;;;22.09;31.35;97150.28;5074903;28;956;-75
2022/01/06 12:44:46;;;;;;;;;;;;;;;22.07;31.46;97140.66;5074426;28;980;-75
2022/01/06 12:47:12;;;;;;;;;;;;;;;22.02;31.46;97149.78;5075132;28;977;-76
2022/01/06 12:49:37;;;;;;;;;;;;;;;22.24;30.88;97153.31;5073741;28;997;-75
2022/01/06 12:52:03;;;;;;;;;;;;;;;21.97;31.50;97164.56;5074590;28;1882;-75
2022/01/06 12:54:32;;;;;;;;;;;;;;;22.04;31.05;97148.06;5073717;28;841;-75
2022/01/06 12:56:58;;;;;;;;;;;;;;;22.02;31.12;97169.59;5057678;28;770;-75
2022/01/06 12:59:27;;;;;;;;;;;;;;;22.38;31.88;97173.78;5057184;28;1286;-75
2022/01/06 13:01:55;;;;;;;;;;;;;;;22.62;31.47;97172.72;5074331;28;825;-75
2022/01/06 13:04:27;;;;;;;;;;;;;;;22.55;31.27;97172.25;5074299;28;810;-75
2022/01/06 13:06:56;;;;;;;;;;;;;;;22.32;31.23;97180.09;5076795;28;695;-75
2022/01/06 13:09:22;;;;;;;;;;;;;;;22.23;31.18;97177.25;5076636;28;1098;-75
2022/01/06 13:11:51;;;;;;;;;;;;;;;22.12;31.14;97182.56;5080497;28;1906;-75